Time;durP1;ratioP1;P1;durP2;ratioP2;P2;SDS_P1;SDS_P2;PMS_P1;PMS_P2;Temp;Humidity;BMP_temperature;BMP_pressure;BME280_temperature;BME280_humidity;BME280_pressure;Samples;Min_cycle;Max_cycle;Signal;HPM_P1;HPM_P2
2022/06/16 00:02:27;;;;;;;5.90;1.70;;;;;;;15.71;74.50;100692.66;5529702;32;32294;-66
2022/06/16 00:05:34;;;;;;;4.93;1.70;;;;;;;15.71;75.40;100689.97;5530309;32;33999;-66
2022/06/16 00:08:36;;;;;;;3.10;1.70;;;;;;;15.70;75.23;100687.47;5530278;32;33978;-66
2022/06/16 00:11:39;;;;;;;4.62;1.30;;;;;;;15.68;75.24;100690.38;5530282;32;34399;-66
2022/06/16 00:14:42;;;;;;;3.22;1.80;;;;;;;15.65;75.15;100693.41;5530383;32;33901;-66
2022/06/16 00:17:45;;;;;;;3.05;1.70;;;;;;;15.60;74.61;100685.97;5529991;32;34722;-66
2022/06/16 00:20:47;;;;;;;3.15;1.25;;;;;;;15.64;73.37;100684.56;5530200;32;33911;-66
2022/06/16 00:23:50;;;;;;;2.45;1.50;;;;;;;15.58;72.72;100682.69;5530237;32;33948;-66
2022/06/16 00:26:54;;;;;;;5.93;1.40;;;;;;;15.86;70.36;100688.03;5529203;32;34010;-66
2022/06/16 00:29:57;;;;;;;3.33;1.40;;;;;;;16.09;69.22;100674.41;5530126;32;33931;-66
2022/06/16 00:33:00;;;;;;;3.78;1.50;;;;;;;16.02;69.70;100670.87;5529338;32;34549;-66
2022/06/16 00:36:03;;;;;;;5.97;1.70;;;;;;;15.97;70.06;100671.47;5529815;32;34009;-66
2022/06/16 00:39:06;;;;;;;6.07;2.33;;;;;;;16.00;69.98;100667.53;5529690;32;34580;-66
2022/06/16 00:42:21;;;;;;;4.72;2.00;;;;;;;15.97;70.56;100665.28;5529267;32;34430;-66
2022/06/16 00:45:50;;;;;;;3.53;1.90;;;;;;;15.93;70.52;100664.81;5528964;32;33902;-66
2022/06/16 00:49:02;;;;;;;3.15;1.70;;;;;;;15.81;70.86;100658.38;5523487;32;34701;-66
2022/06/16 00:52:18;;;;;;;2.65;1.50;;;;;;;15.83;70.90;100667.00;5530725;32;34562;-66
2022/06/16 00:55:21;;;;;;;2.40;1.58;;;;;;;15.92;70.40;100662.34;5532346;32;33913;-66
2022/06/16 00:58:26;;;;;;;2.72;1.60;;;;;;;15.79;71.28;100659.56;5530932;32;34044;-66
2022/06/16 01:01:30;;;;;;;2.65;1.62;;;;;;;15.85;71.08;100662.31;5531217;32;33174;-66
2022/06/16 01:07:56;;;;;;;1.65;1.30;;;;;;;15.82;71.34;100653.84;5532130;32;34031;-66
2022/06/16 01:11:06;;;;;;;4.85;1.90;;;;;;;15.82;71.48;100649.31;5531939;32;33322;-66
2022/06/16 01:14:22;;;;;;;2.42;1.25;;;;;;;15.72;72.17;100643.47;5532082;32;34259;-66
2022/06/16 01:17:50;;;;;;;2.40;1.50;;;;;;;15.58;73.85;100641.75;5532098;32;33917;-66
2022/06/16 01:21:30;;;;;;;3.28;1.70;;;;;;;15.60;74.08;100645.84;5531112;32;33602;-66
2022/06/16 01:24:49;;;;;;;3.70;1.98;;;;;;;15.38;74.86;100643.38;5532324;32;33910;-66
2022/06/16 01:28:18;;;;;;;5.10;1.70;;;;;;;15.29;75.50;100649.88;5531213;32;34584;-66
2022/06/16 01:31:30;;;;;;;4.93;1.83;;;;;;;15.11;76.49;100634.28;5531309;32;32421;-66
2022/06/16 01:34:36;;;;;;;;;;;;;;;15.02;77.65;100630.91;5532339;32;34022;-66
2022/06/16 01:37:55;;;;;;;4.05;1.90;;;;;;;14.95;78.25;100630.03;5531993;32;34386;-66
2022/06/16 01:41:05;;;;;;;3.67;1.93;;;;;;;14.92;79.14;100641.06;5531893;32;33904;-67
2022/06/16 01:44:13;;;;;;;4.53;2.15;;;;;;;14.88;79.53;100636.31;5531304;32;32295;-67
2022/06/16 01:47:21;;;;;;;8.20;1.90;;;;;;;14.85;80.28;100634.03;5531870;32;34074;-67
2022/06/16 01:50:35;;;;;;;3.10;1.87;;;;;;;14.82;81.36;100631.72;5531782;32;34696;-67
2022/06/16 01:53:47;;;;;;;2.85;1.73;;;;;;;14.76;82.20;100636.78;5531913;32;34052;-67
2022/06/16 01:57:08;;;;;;;3.65;1.77;;;;;;;14.73;82.50;100639.84;5530930;32;35256;-67
2022/06/16 02:00:13;;;;;;;3.00;1.77;;;;;;;14.71;83.37;100631.22;5531696;32;34595;-67
2022/06/16 02:03:27;;;;;;;2.57;1.70;;;;;;;14.99;85.16;100628.62;5531072;32;33990;-66
2022/06/16 02:06:37;;;;;;;3.03;1.98;;;;;;;15.01;84.62;100626.56;5531897;32;33944;-67
2022/06/16 02:09:44;;;;;;;4.72;1.92;;;;;;;14.98;85.88;100631.47;5531530;32;34331;-67
2022/06/16 02:12:57;;;;;;;2.55;1.80;;;;;;;14.95;85.80;100639.88;5531813;32;34596;-66
2022/06/16 02:16:06;;;;;;;4.25;1.83;;;;;;;14.91;86.11;100634.06;5531625;32;34109;-66
2022/06/16 02:19:15;;;;;;;4.60;1.80;;;;;;;14.85;87.01;100626.00;5531648;32;34754;-67
2022/06/16 02:22:19;;;;;;;6.47;2.10;;;;;;;14.86;89.17;100631.16;5531266;32;34073;-67
2022/06/16 02:25:22;;;;;;;6.37;2.00;;;;;;;14.87;88.84;100631.97;5531240;32;34629;-67
2022/06/16 02:28:26;;;;;;;2.95;2.10;;;;;;;14.80;88.56;100634.59;5531319;32;34023;-67
2022/06/16 02:31:49;;;;;;;5.62;1.90;;;;;;;14.67;89.12;100629.06;5530689;32;34598;-67
2022/06/16 02:35:14;;;;;;;3.55;1.90;;;;;;;14.60;89.10;100630.88;5530612;32;34243;-67
2022/06/16 02:38:58;;;;;;;2.85;1.80;;;;;;;14.58;90.01;100630.22;5531388;32;35215;-67
2022/06/16 02:42:26;;;;;;;2.65;1.70;;;;;;;14.88;88.90;100615.75;5489534;32;34054;-67
2022/06/16 02:45:38;;;;;;;4.87;2.17;;;;;;;14.74;89.09;100627.31;5531182;32;34519;-67
2022/06/16 02:49:13;;;;;;;4.37;2.00;;;;;;;14.68;89.60;100628.06;5531213;32;34033;-66
2022/06/16 02:52:23;;;;;;;3.92;2.20;;;;;;;14.68;88.12;100628.06;5531247;32;33909;-67
2022/06/16 02:55:38;;;;;;;3.42;2.17;;;;;;;14.54;88.75;100639.63;5531240;32;34585;-67
2022/06/16 02:58:44;;;;;;;2.70;1.70;;;;;;;14.52;89.73;100639.81;5531029;32;35363;-67
2022/06/16 03:01:49;;;;;;;3.40;2.05;;;;;;;14.47;89.60;100636.87;5531054;32;33917;-67
2022/06/16 03:05:05;;;;;;;5.35;2.05;;;;;;;14.40;90.20;100637.78;5530664;32;33929;-67
2022/06/16 03:08:08;;;;;;;3.00;2.00;;;;;;;14.35;90.18;100643.66;5531024;32;34034;-67
2022/06/16 03:11:12;;;;;;;3.28;2.10;;;;;;;14.38;90.45;100643.31;5531129;32;34477;-67
2022/06/16 03:14:19;;;;;;;5.15;1.90;;;;;;;14.43;90.51;100642.75;5531305;32;34052;-67
2022/06/16 03:17:24;;;;;;;2.75;1.67;;;;;;;14.40;90.26;100637.78;5531012;32;33992;-67
2022/06/16 03:20:26;;;;;;;3.80;2.00;;;;;;;14.52;89.99;100644.34;5530969;32;34357;-66
2022/06/16 03:23:30;;;;;;;3.90;2.00;;;;;;;14.84;88.22;100641.19;5530871;32;33928;-66
2022/06/16 03:26:33;;;;;;;3.00;1.83;;;;;;;14.91;87.96;100643.97;5531206;32;33881;-66
2022/06/16 03:29:36;;;;;;;4.28;2.22;;;;;;;14.86;88.36;100636.50;5530816;32;34494;-67
2022/06/16 03:32:40;;;;;;;2.67;1.70;;;;;;;14.82;89.00;100639.72;5530836;32;34261;-66
2022/06/16 03:35:45;;;;;;;4.45;2.28;;;;;;;14.88;88.82;100645.16;5530777;32;34561;-67
2022/06/16 03:38:48;;;;;;;2.83;2.10;;;;;;;14.87;88.39;100650.66;5530721;32;34019;-67
2022/06/16 03:41:51;;;;;;;3.58;1.77;;;;;;;14.98;88.43;100655.53;5530667;32;34083;-67
2022/06/16 03:44:54;;;;;;;5.45;1.98;;;;;;;15.02;88.15;100652.28;5530807;32;33881;-66
2022/06/16 03:47:58;;;;;;;4.07;2.00;;;;;;;15.10;87.69;100646.81;5530734;32;34790;-66
2022/06/16 03:51:00;;;;;;;5.93;2.42;;;;;;;15.12;87.18;100649.28;5530602;32;34660;-66
2022/06/16 03:54:03;;;;;;;4.22;1.95;;;;;;;15.21;86.70;100643.63;5529534;32;32607;-66
2022/06/16 03:57:07;;;;;;;2.30;1.80;;;;;;;15.27;86.29;100655.41;5530706;32;34281;-67
2022/06/16 04:00:12;;;;;;;2.83;1.90;;;;;;;15.32;86.06;100658.34;5530317;32;34209;-66
2022/06/16 04:06:41;;;;;;;4.82;2.20;;;;;;;15.50;85.94;100664.03;5530392;32;34088;-67
2022/06/16 04:09:44;;;;;;;4.68;2.20;;;;;;;15.57;85.61;100664.97;5529638;32;33062;-67
2022/06/16 04:12:47;;;;;;;4.57;2.20;;;;;;;15.67;85.92;100667.31;5530275;32;33967;-66
2022/06/16 04:15:51;;;;;;;7.03;2.60;;;;;;;15.87;86.71;100665.62;5529670;32;33935;-67
2022/06/16 04:18:55;;;;;;;4.25;2.10;;;;;;;15.99;88.04;100665.88;5516641;32;32581;-66
2022/06/16 04:21:58;;;;;;;3.47;2.10;;;;;;;16.07;83.46;100673.78;5529858;32;33849;-67
2022/06/16 04:25:01;;;;;;;4.35;2.12;;;;;;;16.14;82.24;100671.97;5530259;32;34667;-67
2022/06/16 04:28:07;;;;;;;8.55;2.20;;;;;;;16.14;81.98;100673.81;5531012;32;34267;-66
2022/06/16 04:31:11;;;;;;;3.67;2.30;;;;;;;16.20;82.55;100676.53;5532496;32;34986;-67
2022/06/16 04:34:14;;;;;;;2.95;2.00;;;;;;;16.31;81.73;100677.84;5532436;32;34141;-67
2022/06/16 04:37:20;;;;;;;5.55;2.17;;;;;;;16.36;81.07;100668.16;5532393;32;34544;-67
2022/06/16 04:40:26;;;;;;;3.62;2.28;;;;;;;16.56;81.27;100670.09;5532799;32;33770;-66
2022/06/16 04:43:31;;;;;;;4.53;2.05;;;;;;;16.60;nan;100672.25;5532213;32;34149;-67
2022/06/16 04:46:36;;;;;;;4.03;1.90;;;;;;;16.77;75.80;100678.06;5532141;32;35260;-67
2022/06/16 04:49:40;;;;;;;3.05;1.98;;;;;;;16.82;76.28;100679.12;5532197;32;33941;-67
2022/06/16 04:52:43;;;;;;;3.58;2.08;;;;;;;16.85;73.75;100673.34;5532743;32;34542;-66
2022/06/16 04:55:52;;;;;;;4.72;2.00;;;;;;;16.97;74.16;100672.75;5532400;32;33917;-67
2022/06/16 04:58:56;;;;;;;4.75;2.30;;;;;;;17.12;73.23;100678.78;5531919;32;34899;-66
2022/06/16 05:01:59;;;;;;;5.25;1.73;;;;;;;17.14;73.65;100671.34;5532204;32;34231;-66
2022/06/16 05:05:03;;;;;;;2.37;1.90;;;;;;;17.30;72.60;100668.28;5532232;32;34820;-65
2022/06/16 05:08:06;;;;;;;4.43;2.10;;;;;;;17.43;71.81;100664.81;5531280;32;34728;-66
2022/06/16 05:11:11;;;;;;;2.92;1.83;;;;;;;17.57;70.59;100666.47;5531415;32;34131;-65
2022/06/16 05:14:15;;;;;;;6.12;2.03;;;;;;;17.67;70.52;100662.34;5531901;32;34122;-65
2022/06/16 05:17:20;;;;;;;3.75;1.70;;;;;;;17.80;69.52;100667.72;5531975;32;33944;-65
2022/06/16 05:20:26;;;;;;;4.87;2.30;;;;;;;17.96;68.09;100663.78;5531875;32;34587;-65
2022/06/16 05:23:28;;;;;;;3.50;1.87;;;;;;;18.14;67.12;100657.75;5531940;32;33961;-65
2022/06/16 05:26:31;;;;;;;5.40;1.80;;;;;;;18.27;66.98;100662.25;5531884;32;34033;-66
2022/06/16 05:29:34;;;;;;;2.42;1.83;;;;;;;18.37;67.18;100660.78;5531776;32;34321;-65
2022/06/16 05:32:38;;;;;;;3.40;1.80;;;;;;;18.45;67.19;100660.53;5531331;32;34237;-66
2022/06/16 05:35:42;;;;;;;3.08;2.20;;;;;;;18.59;67.68;100659.50;5530932;32;33976;-66
2022/06/16 05:38:46;;;;;;;4.80;1.98;;;;;;;18.65;68.69;100661.34;5530657;32;34697;-66
2022/06/16 05:41:49;;;;;;;3.75;2.08;;;;;;;18.70;67.40;100660.69;5530523;32;33925;-66
2022/06/16 05:44:53;;;;;;;4.25;2.17;;;;;;;18.79;67.28;100664.78;5531206;32;34539;-65
2022/06/16 05:47:57;;;;;;;5.12;2.10;;;;;;;18.98;66.34;100663.84;5531909;32;34150;-65
2022/06/16 05:51:05;;;;;;;8.40;2.33;;;;;;;19.00;66.68;100658.25;5531824;32;34015;-66
2022/06/16 05:54:13;;;;;;;9.27;2.05;;;;;;;19.02;65.88;100670.47;5531665;32;34376;-65
2022/06/16 05:57:20;;;;;;;4.72;1.87;;;;;;;19.21;64.92;100665.19;5531248;32;34115;-66
2022/06/16 06:00:24;;;;;;;7.00;2.37;;;;;;;19.19;64.72;100664.56;5531634;32;34163;-66
2022/06/16 06:03:29;;;;;;;4.15;2.25;;;;;;;19.31;64.36;100660.16;5531116;32;34626;-66
2022/06/16 06:06:33;;;;;;;3.33;2.08;;;;;;;19.45;63.48;100661.72;5531453;32;33908;-66
2022/06/16 06:16:35;;;;;;;4.15;2.17;;;;;;;19.85;62.80;100671.09;5530718;32;33999;-70
2022/06/16 06:19:39;;;;;;;3.12;2.00;;;;;;;20.08;61.32;100666.97;5531375;32;33980;-66
2022/06/16 06:22:41;;;;;;;4.90;2.20;;;;;;;20.08;60.69;100651.63;5531566;32;34597;-67
2022/06/16 06:25:44;;;;;;;3.70;2.08;;;;;;;20.23;60.55;100660.16;5531206;32;34535;-67
2022/06/16 06:28:47;;;;;;;5.10;2.00;;;;;;;20.27;59.01;100663.22;5531210;32;33979;-67
2022/06/16 06:31:50;;;;;;;7.82;2.12;;;;;;;20.34;59.63;100651.34;5530501;32;32669;-67
2022/06/16 06:34:53;;;;;;;7.35;2.20;;;;;;;20.58;60.32;100648.78;5530810;32;34838;-67
2022/06/16 06:37:58;;;;;;;5.28;2.28;;;;;;;20.86;60.09;100659.84;5530637;32;34838;-66
2022/06/16 06:41:01;;;;;;;4.45;2.10;;;;;;;21.11;58.78;100654.28;5530787;32;35209;-67
2022/06/16 06:44:05;;;;;;;7.07;1.85;;;;;;;21.29;57.25;100665.06;5530910;32;34398;-67
2022/06/16 06:47:15;;;;;;;8.27;1.87;;;;;;;21.53;56.64;100672.16;5530660;32;33960;-66
2022/06/16 06:50:25;;;;;;;4.90;1.87;;;;;;;21.69;55.36;100663.34;5530023;32;33969;-66
2022/06/16 06:53:28;;;;;;;2.87;1.65;;;;;;;21.92;56.16;100673.38;5531645;32;34489;-65
2022/06/16 06:56:33;;;;;;;5.22;1.85;;;;;;;22.00;55.07;100664.94;5531476;32;34143;-66
2022/06/16 06:59:35;;;;;;;5.37;1.98;;;;;;;22.21;55.05;100658.09;5530411;32;34995;-66
2022/06/16 07:02:40;;;;;;;6.68;2.30;;;;;;;22.44;54.35;100657.22;5529930;32;34042;-65
2022/06/16 07:05:42;;;;;;;6.55;2.22;;;;;;;22.53;53.61;100662.03;5530817;32;34323;-65
2022/06/16 07:08:46;;;;;;;2.85;2.03;;;;;;;22.73;53.29;100650.81;5529874;32;32624;-67
2022/06/16 07:11:49;;;;;;;5.70;2.35;;;;;;;22.93;51.24;100664.75;5530885;32;33897;-66
2022/06/16 07:14:54;;;;;;;3.92;1.95;;;;;;;23.13;50.76;100653.47;5530877;32;34731;-65
2022/06/16 07:17:56;;;;;;;11.50;2.17;;;;;;;23.31;51.96;100658.66;5517219;32;32575;-65
2022/06/16 07:20:59;;;;;;;5.65;2.50;;;;;;;23.59;50.44;100657.78;5530672;32;33925;-65
2022/06/16 07:24:04;;;;;;;4.90;1.92;;;;;;;23.69;49.66;100644.41;5530333;32;34611;-65
2022/06/16 07:27:08;;;;;;;4.97;1.92;;;;;;;24.14;48.34;100648.88;5530780;32;34293;-66
2022/06/16 07:30:16;;;;;;;4.32;2.10;;;;;;;24.55;47.15;100650.22;5530271;32;33980;-65
2022/06/16 07:33:19;;;;;;;7.10;2.20;;;;;;;24.98;46.00;100650.19;5530887;32;33918;-65
2022/06/16 07:36:22;;;;;;;4.65;2.20;;;;;;;25.46;44.32;100637.63;5530097;32;34929;-66
2022/06/16 07:39:25;;;;;;;6.45;2.62;;;;;;;25.69;44.39;100645.44;5529892;32;32752;-65
2022/06/16 07:42:28;;;;;;;6.62;2.22;;;;;;;26.26;42.40;100640.09;5516764;32;32722;-65
2022/06/16 07:45:31;;;;;;;6.35;2.00;;;;;;;26.63;41.11;100633.69;5530269;32;33979;-65
2022/06/16 07:48:34;;;;;;;4.12;1.73;;;;;;;27.25;39.56;100636.34;5530423;32;34321;-65
2022/06/16 07:51:39;;;;;;;3.72;1.70;;;;;;;27.75;37.98;100637.41;5530072;32;34691;-65
2022/06/16 07:54:44;;;;;;;5.28;1.67;;;;;;;27.82;38.35;100640.69;5529549;32;32847;-65
2022/06/16 07:57:53;;;;;;;5.03;2.00;;;;;;;29.08;37.57;100642.94;5530259;32;33970;-65
2022/06/16 08:00:56;;;;;;;4.25;1.70;;;;;;;30.04;34.79;100636.66;5528321;32;34526;-65
2022/06/16 08:04:05;;;;;;;16.98;2.15;;;;;;;30.90;32.05;100641.03;5530112;32;33971;-66
2022/06/16 08:07:08;;;;;;;3.70;1.52;;;;;;;30.82;32.09;100628.03;5530190;32;34136;-66
2022/06/16 08:10:16;;;;;;;2.75;1.23;;;;;;;31.04;30.79;100633.72;5530077;32;34070;-65
2022/06/16 08:13:20;;;;;;;7.90;1.43;;;;;;;31.27;29.73;100629.28;5530408;32;34034;-65
2022/06/16 08:16:23;;;;;;;4.78;1.33;;;;;;;31.83;28.67;100622.84;5529150;32;34650;-65
2022/06/16 08:19:29;;;;;;;3.90;1.00;;;;;;;31.66;28.76;100628.09;5530416;32;34364;-66
2022/06/16 08:22:42;;;;;;;4.40;0.85;;;;;;;30.35;29.95;100619.87;5529799;32;33945;-65
2022/06/16 08:25:49;;;;;;;3.70;1.12;;;;;;;31.37;26.40;100614.59;5528871;32;34011;-66
2022/06/16 08:28:57;;;;;;;3.17;1.10;;;;;;;30.96;27.01;100617.13;5529910;32;35170;-65
2022/06/16 08:32:01;;;;;;;6.95;1.27;;;;;;;30.75;28.04;100624.81;5529638;32;35265;-65
2022/06/16 08:35:05;;;;;;;2.45;0.98;;;;;;;30.64;27.35;100629.63;5529848;32;34033;-65
2022/06/16 08:38:10;;;;;;;1.52;1.00;;;;;;;30.74;28.53;100638.84;5529799;32;35146;-67
2022/06/16 08:41:34;;;;;;;2.35;1.00;;;;;;;31.66;25.16;100634.38;5527865;32;33296;-65
2022/06/16 08:44:47;;;;;;;3.58;1.15;;;;;;;32.73;25.67;100644.91;5529592;32;34112;-66
2022/06/16 08:48:20;;;;;;;3.92;1.30;;;;;;;33.22;24.92;100642.44;5529094;32;34078;-65
2022/06/16 08:51:51;;;;;;;1.33;1.10;;;;;;;33.88;24.39;100633.34;5528912;32;34123;-65
2022/06/16 08:55:13;;;;;;;3.28;1.10;;;;;;;34.55;23.56;100631.16;5528238;32;35336;-66
2022/06/16 08:58:34;;;;;;;7.53;1.12;;;;;;;34.06;23.03;100637.78;5527988;32;34409;-65
2022/06/16 09:01:55;;;;;;;2.28;1.17;;;;;;;33.27;24.45;100634.88;5529208;32;35292;-66
2022/06/16 09:05:07;;;;;;;5.30;1.40;;;;;;;33.98;23.50;100636.63;5528610;32;34006;-65
2022/06/16 09:08:10;;;;;;;4.25;1.40;;;;;;;34.69;22.30;100634.59;5527910;32;32791;-65
2022/06/16 09:11:37;;;;;;;5.65;1.20;;;;;;;33.96;22.42;100636.13;5528570;32;34631;-65
2022/06/16 09:18:31;;;;;;;4.15;1.33;;;;;;;32.63;24.57;100627.81;5532199;32;34149;-65
2022/06/16 09:21:47;;;;;;;1.98;1.33;;;;;;;34.70;23.01;100624.41;5531539;32;34274;-65
2022/06/16 09:25:05;;;;;;;5.53;1.10;;;;;;;36.07;20.71;100621.41;5531676;32;33942;-65
2022/06/16 09:28:22;;;;;;;4.10;1.25;;;;;;;36.03;21.20;100622.41;5531834;32;33859;-66
2022/06/16 09:31:46;;;;;;;7.60;1.10;;;;;;;35.55;21.32;100611.69;5531535;32;35191;-66
2022/06/16 09:35:12;;;;;;;4.35;1.27;;;;;;;36.39;20.11;100611.69;5531175;32;34108;-67
2022/06/16 09:38:39;;;;;;;2.83;1.00;;;;;;;35.61;21.25;100611.19;5530930;32;34542;-67
2022/06/16 09:45:32;;;;;;;1.80;0.90;;;;;;;36.51;19.59;100603.47;5530999;32;34278;-65
2022/06/16 09:48:45;;;;;;;3.97;1.10;;;;;;;35.02;21.16;100595.53;5530074;32;32524;-66
2022/06/16 09:52:04;;;;;;;4.47;1.17;;;;;;;36.64;19.61;100604.41;5531369;32;34032;-66
2022/06/16 09:55:24;;;;;;;1.77;1.15;;;;;;;35.66;19.87;100585.38;5530573;32;32460;-66
2022/06/16 09:58:33;;;;;;;1.80;1.00;;;;;;;36.28;19.23;100593.06;5531602;32;33952;-66
2022/06/16 10:01:48;;;;;;;5.57;1.40;;;;;;;35.72;19.98;100598.69;5531576;32;35313;-66
2022/06/16 10:04:54;;;;;;;1.92;1.20;;;;;;;36.93;18.31;100603.50;5531580;32;34160;-67
2022/06/16 10:08:09;;;;;;;12.20;1.40;;;;;;;36.49;18.94;100597.47;5531787;32;35232;-66
2022/06/16 10:11:28;;;;;;;2.70;1.15;;;;;;;37.40;17.42;100604.03;5531510;32;34598;-65
2022/06/16 10:14:56;;;;;;;3.90;1.10;;;;;;;38.14;17.23;100591.94;5529728;32;32616;-66
2022/06/16 10:17:59;;;;;;;3.97;1.25;;;;;;;38.64;16.65;100591.53;5531156;32;34870;-66
2022/06/16 10:21:09;;;;;;;2.30;0.98;;;;;;;39.92;16.47;100588.38;5531806;32;34042;-66
2022/06/16 10:24:16;;;;;;;2.90;1.20;;;;;;;40.13;15.46;100584.50;5529672;32;32904;-66
2022/06/16 10:27:21;;;;;;;2.05;1.25;;;;;;;40.03;15.49;100582.25;5402110;32;4205928;-66
2022/06/16 10:30:34;;;;;;;3.75;1.05;;;;;;;39.58;16.22;100586.28;5531233;32;34615;-66
2022/06/16 10:33:54;;;;;;;5.78;1.20;;;;;;;40.61;14.90;100577.69;5531421;32;34518;-66
2022/06/16 10:37:09;;;;;;;3.20;0.95;;;;;;;39.76;14.75;100587.56;5530121;32;32816;-65
2022/06/16 10:40:27;;;;;;;2.80;1.20;;;;;;;38.61;16.18;100583.94;5531126;32;34340;-67
2022/06/16 10:43:54;;;;;;;2.62;1.02;;;;;;;38.93;16.76;100588.47;5531054;32;33935;-66
2022/06/16 10:47:04;;;;;;;5.35;1.12;;;;;;;39.21;16.38;100585.69;5531078;32;34030;-66
2022/06/16 10:50:28;;;;;;;3.45;1.27;;;;;;;40.46;15.82;100581.28;5531053;32;34877;-66
2022/06/16 10:53:35;;;;;;;1.73;1.10;;;;;;;41.65;14.28;100587.66;5531000;32;34066;-67
2022/06/16 10:56:43;;;;;;;2.37;1.30;;;;;;;40.66;15.00;100583.75;5531115;32;33829;-67
2022/06/16 10:59:50;;;;;;;1.77;1.10;;;;;;;39.76;15.04;100579.22;5529811;32;33309;-66
2022/06/16 11:03:05;;;;;;;2.22;1.12;;;;;;;38.35;16.45;100583.47;5531117;32;34035;-66
2022/06/16 11:06:12;;;;;;;2.15;1.30;;;;;;;40.24;15.49;100577.22;5530570;32;32396;-66
2022/06/16 11:09:21;;;;;;;1.70;1.10;;;;;;;40.81;14.41;100579.31;5531344;32;33906;-66
2022/06/16 11:12:23;;;;;;;2.33;1.20;;;;;;;39.77;16.20;100553.06;5531105;32;33918;-66
2022/06/16 11:15:33;;;;;;;1.85;1.05;;;;;;;38.14;17.13;100550.41;5530981;32;34013;-66
2022/06/16 11:18:37;;;;;;;4.50;1.10;;;;;;;38.68;17.59;100548.09;5530113;32;33862;-66
2022/06/16 11:21:46;;;;;;;2.78;1.12;;;;;;;39.23;16.85;100540.91;5530754;32;34288;-67
2022/06/16 11:25:02;;;;;;;2.97;1.25;;;;;;;40.27;15.65;100548.72;5530889;32;34006;-66
2022/06/16 11:28:11;;;;;;;1.43;1.10;;;;;;;40.95;15.06;100535.06;5530960;32;34246;-66
2022/06/16 11:31:18;;;;;;;2.40;0.98;;;;;;;41.09;14.13;100528.97;5530954;32;34008;-66
2022/06/16 11:34:28;;;;;;;2.33;1.00;;;;;;;42.03;14.52;100515.06;5530759;32;33888;-66
2022/06/16 11:37:49;;;;;;;1.80;1.12;;;;;;;43.30;13.72;100509.44;5529444;32;33830;-65
2022/06/16 11:41:04;;;;;;;7.22;1.30;;;;;;;41.15;14.12;100510.81;5530385;32;35221;-66
2022/06/16 11:44:19;;;;;;;3.53;1.25;;;;;;;40.45;14.74;100505.41;5530998;32;34515;-66
2022/06/16 11:47:44;;;;;;;6.12;1.20;;;;;;;42.24;14.06;100508.16;5530466;32;34119;-67
2022/06/16 11:51:20;;;;;;;1.95;1.10;;;;;;;41.53;13.95;100515.47;5529501;32;34039;-66
2022/06/16 11:54:41;;;;;;;4.05;1.30;;;;;;;41.45;14.70;100505.34;5530225;32;34868;-67
2022/06/16 11:57:59;;;;;;;2.33;1.10;;;;;;;42.10;13.02;100507.97;5529632;32;32804;-67
2022/06/16 12:01:40;;;;;;;1.67;0.98;;;;;;;40.84;13.68;100486.72;5530356;32;34817;-66
2022/06/16 12:05:05;;;;;;;2.25;1.77;;;;;;;41.97;12.80;100487.91;5530080;32;34593;-66
2022/06/16 12:08:44;;;;;;;2.28;1.10;;;;;;;40.01;15.54;100482.56;5530056;32;34617;-67
2022/06/16 12:12:03;;;;;;;1.95;1.00;;;;;;;40.45;15.44;100474.00;5530105;32;34583;-66
2022/06/16 12:15:26;;;;;;;4.12;1.15;;;;;;;41.82;13.38;100484.06;5530315;32;33971;-66
2022/06/16 12:18:46;;;;;;;2.00;0.93;;;;;;;44.04;11.66;100489.66;5529976;32;33924;-66
2022/06/16 12:21:57;;;;;;;1.50;1.00;;;;;;;42.16;13.02;100476.63;5529926;32;33953;-66
2022/06/16 12:25:40;;;;;;;3.47;1.08;;;;;;;43.96;11.62;100485.22;5517118;32;34737;-65
2022/06/16 12:28:55;;;;;;;2.50;1.08;;;;;;;44.18;11.50;100490.53;5529679;32;34620;-67
2022/06/16 12:32:37;;;;;;;2.87;1.20;;;;;;;44.35;11.65;100485.44;5529674;32;34050;-66
2022/06/16 12:36:21;;;;;;;1.25;0.93;;;;;;;43.96;12.53;100480.41;5528814;32;32606;-66
2022/06/16 12:39:57;;;;;;;2.60;1.30;;;;;;;43.85;12.19;100482.31;5529022;32;33929;-67
2022/06/16 12:43:04;;;;;;;;;;;;;;;43.93;11.63;100477.59;5529710;32;34651;-65
2022/06/16 12:46:15;;;;;;;2.58;1.20;;;;;;;42.83;12.69;100477.47;5529627;32;34720;-65
2022/06/16 12:49:45;;;;;;;1.77;1.10;;;;;;;44.48;11.23;100469.88;5531677;32;33922;-66
2022/06/16 12:53:11;;;;;;;1.92;1.00;;;;;;;44.59;11.66;100463.09;5531296;32;34127;-65
2022/06/16 12:56:27;;;;;;;2.58;1.10;;;;;;;46.22;10.41;100460.31;5531165;32;32261;-65
2022/06/16 12:59:51;;;;;;;1.80;1.20;;;;;;;44.15;11.33;100446.53;5531780;32;34727;-65
2022/06/16 13:03:34;;;;;;;3.80;1.30;;;;;;;44.22;11.20;100445.78;5531917;32;34149;-66
2022/06/16 13:06:46;;;;;;;3.62;1.08;;;;;;;46.74;10.06;100432.38;5531617;32;34286;-66
2022/06/16 13:09:51;;;;;;;3.78;1.00;;;;;;;44.27;11.25;100425.06;5531958;32;33668;-66
2022/06/16 13:12:57;;;;;;;4.03;1.10;;;;;;;45.90;10.67;100411.16;5518561;32;34053;-67
2022/06/16 13:16:03;;;;;;;11.68;1.30;;;;;;;44.56;10.97;100413.53;5532104;32;34654;-65
2022/06/16 13:19:27;;;;;;;2.10;1.08;;;;;;;46.21;10.84;100405.41;5531214;32;34250;-66
2022/06/16 13:22:43;;;;;;;1.60;1.00;;;;;;;46.33;10.65;100412.56;5530927;32;35327;-68
2022/06/16 13:25:56;;;;;;;3.45;1.10;;;;;;;45.95;9.55;100405.88;5531523;32;34678;-66
2022/06/16 13:29:19;;;;;;;7.00;1.00;;;;;;;44.79;10.39;100410.41;5531624;32;34360;-65
2022/06/16 13:32:47;;;;;;;17.02;1.50;;;;;;;43.22;11.52;100396.87;5531577;32;34625;-67
2022/06/16 13:36:36;;;;;;;11.30;1.27;;;;;;;44.24;11.05;100404.25;5531044;32;34788;-66
2022/06/16 13:39:50;;;;;;;32.20;2.28;;;;;;;41.53;13.20;100392.91;5531080;32;33860;-66
2022/06/16 13:42:56;;;;;;;12.35;1.60;;;;;;;42.32;12.83;100374.03;5530487;32;32607;-66
2022/06/16 13:46:02;;;;;;;1.25;0.90;;;;;;;42.93;12.60;100381.06;5531479;32;34172;-66
2022/06/16 13:49:05;;;;;;;54.47;2.70;;;;;;;41.84;13.02;100373.03;5531387;32;34533;-65
2022/06/16 13:52:16;;;;;;;32.03;2.35;;;;;;;40.50;14.01;100368.03;5530836;32;34232;-65
2022/06/16 13:55:27;;;;;;;14.95;1.50;;;;;;;38.44;15.94;100366.00;5531021;32;33883;-64
2022/06/16 13:58:38;;;;;;;5.57;1.10;;;;;;;40.10;13.96;100372.00;5530426;32;34137;-65
2022/06/16 14:02:09;;;;;;;2.65;0.88;;;;;;;43.89;11.53;100374.16;5530911;32;34811;-65
2022/06/16 14:05:27;;;;;;;1.50;1.17;;;;;;;44.70;10.45;100372.81;5530020;32;32454;-65
2022/06/16 14:08:33;;;;;;;3.62;0.90;;;;;;;45.82;9.65;100379.50;5530706;32;34191;-65
2022/06/16 14:12:06;;;;;;;6.50;1.17;;;;;;;44.82;10.37;100373.22;5530941;32;33973;-66
2022/06/16 14:15:13;;;;;;;11.57;1.92;;;;;;;42.03;11.93;100375.69;5523667;32;32667;-65
2022/06/16 14:18:21;;;;;;;;;;;;;;;41.61;12.81;100356.41;5530321;32;35361;-65
2022/06/16 14:21:36;;;;;;;2.83;1.10;;;;;;;41.43;12.92;100348.97;5530209;32;34893;-65
2022/06/16 14:24:58;;;;;;;2.20;1.25;;;;;;;44.16;11.29;100357.84;5530625;32;34748;-66
2022/06/16 14:28:09;;;;;;;1.70;1.30;;;;;;;41.70;12.61;100341.38;5530133;32;34217;-66
2022/06/16 14:31:27;;;;;;;12.43;1.83;;;;;;;39.21;14.63;100337.88;5529414;32;34083;-65
2022/06/16 14:34:30;;;;;;;3.95;1.10;;;;;;;40.30;14.86;100333.91;5529438;32;34399;-67
2022/06/16 14:37:42;;;;;;;2.12;1.27;;;;;;;44.25;11.71;100329.53;5530660;32;33961;-66
2022/06/16 14:40:59;;;;;;;2.35;1.33;;;;;;;46.48;9.86;100329.84;5529436;32;34204;-66
2022/06/16 14:44:24;;;;;;;4.35;1.70;;;;;;;45.54;10.30;100320.72;5516571;32;32631;-66
2022/06/16 14:47:51;;;;;;;1.27;1.12;;;;;;;42.78;12.28;100304.78;5529657;32;32655;-66
2022/06/16 14:51:03;;;;;;;3.20;1.25;;;;;;;44.65;11.54;100312.44;5530312;32;33878;-65
2022/06/16 14:54:30;;;;;;;5.03;1.40;;;;;;;42.41;13.35;100310.38;5529794;32;34678;-66
2022/06/16 14:57:39;;;;;;;3.80;1.57;;;;;;;38.47;15.37;100298.78;5530034;32;34345;-66
2022/06/16 15:00:46;;;;;;;2.12;1.80;;;;;;;36.14;18.29;100293.03;5530479;32;34126;-66
2022/06/16 15:03:56;;;;;;;2.72;1.50;;;;;;;34.85;19.72;100293.94;5530405;32;33949;-66
2022/06/16 15:07:02;;;;;;;3.50;1.80;;;;;;;33.86;20.53;100289.59;5529513;32;33494;-65
2022/06/16 15:10:06;;;;;;;2.53;1.50;;;;;;;33.11;21.62;100292.72;5530199;32;34228;-65
2022/06/16 15:13:12;;;;;;;4.43;1.60;;;;;;;32.99;22.67;100295.25;5529954;32;34801;-65